Terminal Aerodrome Forecast
Issued by NWS Duluth, MN

Home | Current Version | Previous Version | Graphics & Text | Print | Product List | Glossary On
Versions: 1 2 3 4 5 6 7 8 9 10 11 12 13 14 15 16 17 18 19 20 21 22 23
000
FTUS43 KDLH 250000 AAA
TAFINL
TAF AMD
KINL 250013Z 2500/2524 10009KT 1SM -SN BR OVC006
      TEMPO 2500/2502 1/4SM +SN VV010
     FM250300 07007KT 2SM -SN BR OVC005
     FM250700 14004KT 3SM -SN BR OVC006
     FM251200 03006KT 5SM -SNDZ BR OVC006
     FM251600 02010KT P6SM BKN015 OVC025=

USA.gov is the U.S. government's official web portal to all federal, state and local government web resources and services.